US-0076 weather

Frontier Airstrip
Mead, Colorado, United States

Public forecast

Using degrees Fahrenheit for public forecast. Weather courtesy of forecast.io.

METAR (pilot weather report)

Closest report is Vance Brand Airport, 8.8 nm (16.3 km) WSW. Retrieved 2019/08/19 15:35 UTC (13 minutes ago):

KLMO 191535Z AUTO 00000KT 10SM CLR 28/06 A3012 RMK AO2 T02780063

TAF (pilot weather forecast)

Closest forecast is Rocky Mountain Metropolitan Airport, 19.3 nm (35.7 km) SSW. Retrieved 2019/08/19 12:30 UTC (3 hours ago):

TAF KBJC 191127Z 1912/2012 36005KT P6SM FEW120 BKN220 FM191800 05007KT P6SM FEW120 BKN220 FM200000 34007KT P6SM SCT120 BKN220 FM200600 30005KT P6SM FEW120 SCT220